createdAt,value
2022-11-12T00:02:00.697Z,101377.16
2022-11-12T00:04:46.567Z,101375.72
2022-11-12T00:07:32.469Z,101366.09
2022-11-12T00:10:18.303Z,101379.41
2022-11-12T00:13:04.257Z,101375.47
2022-11-12T00:15:50.219Z,101368.50
2022-11-12T00:18:36.116Z,101363.50
2022-11-12T00:21:21.930Z,101373.75
2022-11-12T00:24:07.612Z,101362.72
2022-11-12T00:26:53.351Z,101367.25
2022-11-12T00:29:39.030Z,101357.47
2022-11-12T00:32:25.045Z,101354.12
2022-11-12T00:35:14.024Z,101360.19
2022-11-12T00:38:01.032Z,101364.50
2022-11-12T00:40:47.196Z,101364.06
2022-11-12T00:43:33.193Z,101359.37
2022-11-12T00:46:19.176Z,101355.56
2022-11-12T00:49:04.850Z,101350.19
2022-11-12T00:51:50.697Z,101340.38
2022-11-12T00:54:36.302Z,101337.53
2022-11-12T00:57:22.235Z,101337.44
2022-11-12T01:00:08.813Z,101337.38
2022-11-12T01:02:54.422Z,101341.63
2022-11-12T01:05:40.266Z,101348.25
2022-11-12T01:08:26.465Z,101341.03
2022-11-12T01:11:16.240Z,101332.72
2022-11-12T01:14:05.470Z,101336.47
2022-11-12T01:16:51.388Z,101338.94
2022-11-12T01:19:37.166Z,101326.84
2022-11-12T01:22:23.453Z,101320.81
2022-11-12T01:25:09.259Z,101325.22
2022-11-12T01:27:54.936Z,101323.53
2022-11-12T01:30:40.672Z,101307.25
2022-11-12T01:33:26.708Z,101306.16
2022-11-12T01:36:14.694Z,101301.56
2022-11-12T01:39:00.836Z,101315.97
2022-11-12T01:41:46.988Z,101301.78
2022-11-12T01:44:35.042Z,101303.88
2022-11-12T01:47:33.216Z,101305.69
2022-11-12T01:50:31.460Z,101306.38
2022-11-12T01:53:17.630Z,101303.22
2022-11-12T01:56:04.982Z,101310.56
2022-11-12T01:58:55.801Z,101305.97
2022-11-12T02:01:42.210Z,101300.69
2022-11-12T02:04:28.482Z,101309.50
2022-11-12T02:07:14.688Z,101304.44
2022-11-12T02:10:02.356Z,101312.19
2022-11-12T02:13:08.431Z,101303.69
2022-11-12T02:15:54.278Z,101303.50
2022-11-12T02:18:40.173Z,101296.12
2022-11-12T02:21:27.113Z,101289.47
2022-11-12T02:24:12.745Z,101289.28
2022-11-12T02:26:58.589Z,101279.47
2022-11-12T02:29:47.520Z,101280.28
2022-11-12T02:32:33.204Z,101272.59
2022-11-12T02:35:19.177Z,101277.16
2022-11-12T02:38:05.776Z,101277.09
2022-11-12T02:40:51.982Z,101272.69
2022-11-12T02:43:37.999Z,101275.94
2022-11-12T02:46:23.868Z,101281.91
2022-11-12T02:49:09.790Z,101277.09
2022-11-12T02:51:55.748Z,101285.00
2022-11-12T02:54:41.315Z,101294.44
2022-11-12T02:57:27.363Z,101291.66
2022-11-12T03:00:13.997Z,101289.34
2022-11-12T03:02:59.924Z,101293.28
2022-11-12T03:05:46.451Z,101288.41
2022-11-12T03:08:32.273Z,101289.19
2022-11-12T03:11:18.421Z,101286.94
2022-11-12T03:14:04.956Z,101288.69
2022-11-12T03:16:50.982Z,101283.66
2022-11-12T03:19:36.633Z,101281.13
2022-11-12T03:22:22.391Z,101278.38
2022-11-12T03:25:09.277Z,101290.81
2022-11-12T03:28:04.440Z,101284.81
2022-11-12T03:30:50.318Z,101290.16
2022-11-12T03:33:36.292Z,101291.59
2022-11-12T03:36:22.044Z,101285.63
2022-11-12T03:39:07.969Z,101285.78
2022-11-12T03:41:54.062Z,101286.84
2022-11-12T03:44:39.770Z,101293.56
2022-11-12T03:47:25.517Z,101296.62
2022-11-12T03:50:13.017Z,101297.75
2022-11-12T03:52:59.756Z,101304.37
2022-11-12T03:55:45.963Z,101297.31
2022-11-12T03:58:32.147Z,101300.22
2022-11-12T04:01:17.912Z,101302.41
2022-11-12T04:04:04.301Z,101301.53
2022-11-12T04:07:08.334Z,101303.59
2022-11-12T04:09:54.269Z,101305.34
2022-11-12T04:12:58.605Z,101311.44
2022-11-12T04:15:44.510Z,101303.94
2022-11-12T04:18:48.643Z,101302.06
2022-11-12T04:21:56.529Z,101298.16
2022-11-12T04:25:01.304Z,101293.47
2022-11-12T04:27:47.333Z,101293.94
2022-11-12T04:30:33.178Z,101280.72
2022-11-12T04:33:18.907Z,101282.00
2022-11-12T04:36:05.040Z,101271.63
2022-11-12T04:38:50.631Z,101272.00
2022-11-12T04:41:54.730Z,101268.59
2022-11-12T04:45:00.907Z,101280.63
2022-11-12T04:47:46.668Z,101284.06
2022-11-12T04:50:32.303Z,101282.00
2022-11-12T04:53:18.019Z,101281.37
2022-11-12T04:56:04.176Z,101283.94
2022-11-12T04:58:50.093Z,101287.59
2022-11-12T05:01:35.906Z,101282.84
2022-11-12T05:04:22.074Z,101278.06
2022-11-12T05:07:07.865Z,101277.06
2022-11-12T05:09:54.065Z,101291.59
2022-11-12T05:12:39.867Z,101286.78
2022-11-12T05:15:26.060Z,101293.00
2022-11-12T05:18:12.037Z,101295.38
2022-11-12T05:20:57.897Z,101295.19
2022-11-12T05:23:43.620Z,101294.97
2022-11-12T05:26:30.457Z,101293.56
2022-11-12T05:29:16.589Z,101283.88
2022-11-12T05:32:02.422Z,101300.97
2022-11-12T05:34:48.321Z,101298.06
2022-11-12T05:37:34.283Z,101304.84
2022-11-12T05:40:20.333Z,101305.19
2022-11-12T05:43:05.956Z,101299.25
2022-11-12T05:45:51.589Z,101301.72
2022-11-12T05:48:37.327Z,101301.97
2022-11-12T05:51:23.283Z,101289.94
2022-11-12T05:54:09.238Z,101300.50
2022-11-12T05:56:54.843Z,101299.28
2022-11-12T05:59:40.851Z,101308.28
2022-11-12T06:02:26.487Z,101312.63
2022-11-12T06:05:12.592Z,101317.63
2022-11-12T06:07:58.434Z,101322.50
2022-11-12T06:10:49.226Z,101321.78
2022-11-12T06:13:34.888Z,101316.31
2022-11-12T06:16:20.689Z,101323.78
2022-11-12T06:19:06.404Z,101327.97
2022-11-12T06:21:52.149Z,101330.38
2022-11-12T06:24:38.282Z,101334.81
2022-11-12T06:27:24.319Z,101331.91
2022-11-12T06:30:10.733Z,101350.97
2022-11-12T06:32:56.709Z,101349.59
2022-11-12T06:35:43.299Z,101353.81
2022-11-12T06:38:30.693Z,101352.69
2022-11-12T06:41:16.737Z,101363.66
2022-11-12T06:44:04.684Z,101362.59
2022-11-12T06:46:51.094Z,101370.09
2022-11-12T06:49:37.259Z,101371.72
2022-11-12T06:52:23.178Z,101369.66
2022-11-12T06:55:09.213Z,101380.69
2022-11-12T06:57:55.134Z,101366.06
2022-11-12T07:00:41.189Z,101368.59
2022-11-12T07:03:26.871Z,101367.38
2022-11-12T07:06:15.128Z,101369.41
2022-11-12T07:09:00.851Z,101369.41
2022-11-12T07:11:46.751Z,101369.09
2022-11-12T07:14:32.312Z,101370.53
2022-11-12T07:17:18.257Z,101377.69
2022-11-12T07:20:04.386Z,101391.97
2022-11-12T07:22:50.129Z,101392.44
2022-11-12T07:25:35.886Z,101393.00
2022-11-12T07:28:21.524Z,101386.19
2022-11-12T07:31:09.804Z,101386.66
2022-11-12T07:33:55.719Z,101387.88
2022-11-12T07:36:41.643Z,101397.72
2022-11-12T07:39:27.617Z,101390.97
2022-11-12T07:42:13.363Z,101384.53
2022-11-12T07:44:59.103Z,101382.91
2022-11-12T07:47:44.894Z,101381.06
2022-11-12T07:50:30.615Z,101382.09
2022-11-12T07:53:16.351Z,101379.03
2022-11-12T07:56:04.502Z,101381.56
2022-11-12T07:58:53.449Z,101380.06
2022-11-12T08:01:40.820Z,101378.66
2022-11-12T08:04:26.886Z,101385.72
2022-11-12T08:07:12.912Z,101391.56
2022-11-12T08:09:59.129Z,101400.13
2022-11-12T08:12:44.942Z,101405.28
2022-11-12T08:15:30.741Z,101408.53
2022-11-12T08:18:16.700Z,101409.75
2022-11-12T08:21:04.237Z,101407.44
2022-11-12T08:23:50.178Z,101410.66
2022-11-12T08:26:36.170Z,101407.81
2022-11-12T08:29:23.329Z,101410.37
2022-11-12T08:32:09.192Z,101413.47
2022-11-12T08:34:54.966Z,101406.53
2022-11-12T08:37:40.825Z,101403.06
2022-11-12T08:40:27.799Z,101399.31
2022-11-12T08:43:13.839Z,101406.91
2022-11-12T08:46:00.473Z,101420.56
2022-11-12T08:48:47.653Z,101413.50
2022-11-12T08:51:33.288Z,101412.47
2022-11-12T08:54:18.952Z,101420.69
2022-11-12T08:57:05.126Z,101418.44
2022-11-12T08:59:50.917Z,101419.22
2022-11-12T09:02:36.747Z,101435.38
2022-11-12T09:05:22.839Z,101435.59
2022-11-12T09:08:14.072Z,101436.91
2022-11-12T09:10:59.953Z,101438.41
2022-11-12T09:13:45.761Z,101447.63
2022-11-12T09:16:32.135Z,101445.25
2022-11-12T09:19:17.820Z,101447.50
2022-11-12T09:22:04.213Z,101449.19
2022-11-12T09:24:50.332Z,101455.22
2022-11-12T09:27:36.204Z,101460.69
2022-11-12T09:30:22.681Z,101462.16
2022-11-12T09:33:09.035Z,101467.59
2022-11-12T09:35:55.025Z,101471.37
2022-11-12T09:38:41.115Z,101471.56
2022-11-12T09:41:32.463Z,101480.50
2022-11-12T09:44:20.823Z,101477.63
2022-11-12T09:47:24.713Z,101474.06
2022-11-12T09:50:18.881Z,101471.75
2022-11-12T09:53:19.457Z,101474.44
2022-11-12T09:56:08.309Z,101469.00
2022-11-12T09:58:54.182Z,101474.41
2022-11-12T10:02:00.165Z,101473.03
2022-11-12T10:05:17.401Z,101472.38
2022-11-12T10:08:39.719Z,101480.69
2022-11-12T10:12:04.632Z,101482.41
2022-11-12T10:15:36.898Z,101485.16
2022-11-12T10:18:32.370Z,101484.97
2022-11-12T10:21:24.364Z,101482.53
2022-11-12T10:24:11.134Z,101487.87
2022-11-12T10:26:58.552Z,101476.00
2022-11-12T10:29:53.551Z,101475.13
2022-11-12T10:32:43.010Z,101473.38
2022-11-12T10:35:31.370Z,101472.09
2022-11-12T10:38:22.468Z,101469.59
2022-11-12T10:41:20.517Z,101463.38
2022-11-12T10:44:07.348Z,101461.81
2022-11-12T10:47:18.518Z,101459.88
2022-11-12T10:50:10.996Z,101451.16
2022-11-12T10:53:01.032Z,101452.53
2022-11-12T10:55:58.509Z,101452.16
2022-11-12T10:58:44.453Z,101446.16
2022-11-12T11:01:35.422Z,101447.53
2022-11-12T11:04:31.613Z,101446.81
2022-11-12T11:07:22.173Z,101444.84
2022-11-12T11:10:27.155Z,101449.12
2022-11-12T11:13:23.044Z,101446.84
2022-11-12T11:16:13.038Z,101437.66
2022-11-12T11:19:09.365Z,101434.56
2022-11-12T11:22:04.510Z,101436.34
2022-11-12T11:24:59.897Z,101433.31
2022-11-12T11:28:08.730Z,101432.03
2022-11-12T11:31:02.175Z,101426.53
2022-11-12T11:34:08.815Z,101426.53
2022-11-12T11:37:20.683Z,101430.13
2022-11-12T11:40:12.449Z,101424.28
2022-11-12T11:43:22.700Z,101429.87
2022-11-12T11:46:17.450Z,101428.81
2022-11-12T11:49:17.252Z,101426.59
2022-11-12T11:52:34.443Z,101426.66
2022-11-12T11:55:42.539Z,101429.25
2022-11-12T11:58:53.916Z,101415.22
2022-11-12T12:01:58.289Z,101408.25
2022-11-12T12:04:52.211Z,101419.06
2022-11-12T12:07:49.318Z,101406.81
2022-11-12T12:11:07.485Z,101406.31
2022-11-12T12:14:15.694Z,101404.94
2022-11-12T12:17:17.767Z,101407.69
2022-11-12T12:20:14.541Z,101400.94
2022-11-12T12:23:05.113Z,101390.91
2022-11-12T12:25:57.385Z,101395.81
2022-11-12T12:29:12.474Z,101381.03
2022-11-12T12:32:24.102Z,101386.88
2022-11-12T12:35:21.827Z,101388.28
2022-11-12T12:38:18.945Z,101388.28
2022-11-12T12:41:28.045Z,101388.78
2022-11-12T12:44:13.810Z,101386.97
2022-11-12T12:47:01.026Z,101388.28
2022-11-12T12:49:47.981Z,101381.03
2022-11-12T12:53:00.261Z,101385.78
2022-11-12T12:55:50.314Z,101381.88
2022-11-12T12:58:48.671Z,101383.75
2022-11-12T13:01:35.800Z,101387.09
2022-11-12T13:04:52.554Z,101377.84
2022-11-12T13:07:40.938Z,101379.44
2022-11-12T13:10:41.771Z,101382.84
2022-11-12T13:13:32.425Z,101383.00
2022-11-12T13:16:47.882Z,101386.41
2022-11-12T13:19:39.392Z,101379.97
2022-11-12T13:22:24.936Z,101375.69
2022-11-12T13:25:10.967Z,101374.50
2022-11-12T13:28:02.840Z,101374.62
2022-11-12T13:30:48.264Z,101379.00
2022-11-12T13:33:35.756Z,101376.34
2022-11-12T13:36:27.248Z,101377.75
2022-11-12T13:39:19.104Z,101378.78
2022-11-12T13:42:32.180Z,101377.59
2022-11-12T13:45:26.505Z,101380.44
2022-11-12T13:48:20.505Z,101388.75
2022-11-12T13:51:13.252Z,101390.97
2022-11-12T13:53:59.059Z,101384.00
2022-11-12T13:56:45.065Z,101385.66
2022-11-12T13:59:31.064Z,101388.88
2022-11-12T14:02:20.926Z,101385.19
2022-11-12T14:05:18.857Z,101385.91
2022-11-12T14:08:23.960Z,101385.78
2022-11-12T14:11:28.392Z,101395.75
2022-11-12T14:14:55.503Z,101386.25
2022-11-12T14:18:13.335Z,101383.63
2022-11-12T14:21:05.404Z,101380.19
2022-11-12T14:23:51.082Z,101385.19
2022-11-12T14:26:43.378Z,101375.69
2022-11-12T14:29:34.592Z,101375.69
2022-11-12T14:32:21.318Z,101379.97
2022-11-12T14:35:23.084Z,101370.00
2022-11-12T14:38:14.457Z,101378.16
2022-11-12T14:41:20.448Z,101381.03
2022-11-12T14:44:13.894Z,101375.16
2022-11-12T14:47:00.499Z,101375.56
2022-11-12T14:49:48.192Z,101379.50
2022-11-12T14:52:42.033Z,101377.22
2022-11-12T14:55:32.663Z,101372.91
2022-11-12T14:58:19.642Z,101374.22
2022-11-12T15:01:55.683Z,101370.22
2022-11-12T15:04:26.188Z,101375.19
2022-11-12T15:07:34.282Z,101378.44
2022-11-12T15:10:32.589Z,101381.88
2022-11-12T15:13:20.185Z,101375.63
2022-11-12T15:16:07.501Z,101380.62
2022-11-12T15:19:15.553Z,101386.91
2022-11-12T15:22:02.975Z,101382.66
2022-11-12T15:24:49.676Z,101381.56
2022-11-12T15:27:41.218Z,101381.63
2022-11-12T15:30:31.921Z,101378.97
2022-11-12T15:33:21.999Z,101389.81
2022-11-12T15:36:18.934Z,101390.72
2022-11-12T15:39:12.431Z,101394.38
2022-11-12T15:42:03.680Z,101393.13
2022-11-12T15:44:50.030Z,101395.69
2022-11-12T15:47:35.775Z,101398.25
2022-11-12T15:50:25.182Z,101407.19
2022-11-12T15:53:11.097Z,101410.50
2022-11-12T15:55:57.092Z,101409.19
2022-11-12T15:58:42.856Z,101412.53
2022-11-12T16:01:29.111Z,101413.37
2022-11-12T16:04:15.152Z,101417.47
2022-11-12T16:07:00.771Z,101409.72
2022-11-12T16:09:47.152Z,101416.78
2022-11-12T16:12:32.843Z,101421.22
2022-11-12T16:15:20.683Z,101416.69
2022-11-12T16:18:10.056Z,101421.16
2022-11-12T16:20:56.098Z,101422.56
2022-11-12T16:23:41.768Z,101422.84
2022-11-12T16:26:29.357Z,101416.78
2022-11-12T16:29:15.354Z,101414.00
2022-11-12T16:32:02.098Z,101421.41
2022-11-12T16:34:47.785Z,101412.66
2022-11-12T16:37:33.761Z,101407.56
2022-11-12T16:40:23.391Z,101411.53
2022-11-12T16:43:09.133Z,101413.19
2022-11-12T16:45:55.080Z,101411.34
2022-11-12T16:48:40.588Z,101407.59
2022-11-12T16:51:26.403Z,101411.69
2022-11-12T16:54:12.556Z,101412.91
2022-11-12T16:56:58.414Z,101406.56
2022-11-12T16:59:45.174Z,101410.47
2022-11-12T17:02:31.476Z,101412.59
2022-11-12T17:05:24.913Z,101409.25
2022-11-12T17:08:11.082Z,101411.06
2022-11-12T17:10:57.032Z,101416.44
2022-11-12T17:13:43.580Z,101418.75
2022-11-12T17:16:29.959Z,101413.31
2022-11-12T17:19:15.902Z,101409.19
2022-11-12T17:22:01.557Z,101406.25
2022-11-12T17:24:47.280Z,101407.59
2022-11-12T17:27:33.384Z,101411.62
2022-11-12T17:30:19.204Z,101408.19
2022-11-12T17:33:05.226Z,101413.84
2022-11-12T17:35:51.586Z,101413.03
2022-11-12T17:38:38.522Z,101404.44
2022-11-12T17:41:26.396Z,101395.06
2022-11-12T17:44:17.264Z,101400.25
2022-11-12T17:47:03.219Z,101410.41
2022-11-12T17:49:49.318Z,101403.69
2022-11-12T17:52:35.502Z,101408.59
2022-11-12T17:55:21.564Z,101403.84
2022-11-12T17:58:08.335Z,101403.41
2022-11-12T18:00:54.538Z,101395.16
2022-11-12T18:03:42.453Z,101403.66
2022-11-12T18:06:32.232Z,101410.34
2022-11-12T18:09:19.000Z,101405.38
2022-11-12T18:12:05.569Z,101407.88
2022-11-12T18:14:51.421Z,101408.41
2022-11-12T18:17:37.557Z,101403.41
2022-11-12T18:20:23.814Z,101402.47
2022-11-12T18:23:11.001Z,101405.69
2022-11-12T18:25:56.948Z,101412.78
2022-11-12T18:28:42.951Z,101406.00
2022-11-12T18:31:29.357Z,101418.00
2022-11-12T18:34:15.730Z,101418.03
2022-11-12T18:37:02.304Z,101424.00
2022-11-12T18:39:48.573Z,101410.81
2022-11-12T18:42:34.700Z,101419.63
2022-11-12T18:45:21.161Z,101417.69
2022-11-12T18:48:07.629Z,101422.53
2022-11-12T18:51:01.349Z,101428.69
2022-11-12T18:53:48.948Z,101430.88
2022-11-12T18:56:38.310Z,101435.03
2022-11-12T18:59:30.486Z,101433.72
2022-11-12T19:02:16.688Z,101437.81
2022-11-12T19:05:03.910Z,101436.59
2022-11-12T19:07:50.199Z,101431.09
2022-11-12T19:10:37.252Z,101436.41
2022-11-12T19:13:23.417Z,101439.56
2022-11-12T19:16:11.902Z,101438.78
2022-11-12T19:18:57.713Z,101443.84
2022-11-12T19:21:43.697Z,101439.94
2022-11-12T19:24:30.713Z,101436.59
2022-11-12T19:27:16.460Z,101449.12
2022-11-12T19:30:03.565Z,101446.09
2022-11-12T19:32:49.859Z,101444.25
2022-11-12T19:35:35.880Z,101448.06
2022-11-12T19:38:21.882Z,101445.81
2022-11-12T19:41:18.800Z,101455.62
2022-11-12T19:44:06.103Z,101457.16
2022-11-12T19:46:52.598Z,101453.53
2022-11-12T19:49:38.410Z,101458.69
2022-11-12T19:52:24.532Z,101455.00
2022-11-12T19:55:10.398Z,101455.84
2022-11-12T19:57:56.498Z,101458.34
2022-11-12T20:00:43.088Z,101464.19
2022-11-12T20:03:30.081Z,101472.91
2022-11-12T20:06:18.832Z,101473.75
2022-11-12T20:09:05.045Z,101478.78
2022-11-12T20:11:51.191Z,101478.38
2022-11-12T20:14:37.196Z,101481.50
2022-11-12T20:17:23.407Z,101474.09
2022-11-12T20:20:10.430Z,101477.84
2022-11-12T20:22:57.487Z,101475.41
2022-11-12T20:25:43.404Z,101472.59
2022-11-12T20:28:29.938Z,101470.47
2022-11-12T20:31:21.392Z,101477.87
2022-11-12T20:34:07.876Z,101477.84
2022-11-12T20:36:54.871Z,101471.66
2022-11-12T20:39:40.812Z,101475.59
2022-11-12T20:42:27.066Z,101477.56
2022-11-12T20:45:12.940Z,101481.06
2022-11-12T20:47:59.275Z,101478.38
2022-11-12T20:51:09.425Z,101471.50
2022-11-12T20:53:58.975Z,101469.00
2022-11-12T20:56:46.495Z,101474.00
2022-11-12T20:59:32.134Z,101470.94
2022-11-12T21:02:18.284Z,101471.28
2022-11-12T21:05:04.871Z,101469.62
2022-11-12T21:07:50.987Z,101472.00
2022-11-12T21:10:37.333Z,101481.53
2022-11-12T21:13:24.249Z,101481.31
2022-11-12T21:16:11.587Z,101477.37
2022-11-12T21:19:01.806Z,101470.75
2022-11-12T21:21:47.860Z,101473.22
2022-11-12T21:24:33.606Z,101472.56
2022-11-12T21:27:20.577Z,101465.94
2022-11-12T21:30:07.491Z,101472.62
2022-11-12T21:32:53.702Z,101469.69
2022-11-12T21:35:40.174Z,101463.66
2022-11-12T21:38:27.619Z,101466.75
2022-11-12T21:41:17.526Z,101472.19
2022-11-12T21:44:03.563Z,101469.03
2022-11-12T21:46:49.234Z,101468.03
2022-11-12T21:49:35.172Z,101475.09
2022-11-12T21:52:20.861Z,101472.59
2022-11-12T21:55:07.128Z,101466.12
2022-11-12T21:57:52.782Z,101462.59
2022-11-12T22:00:42.726Z,101462.62
2022-11-12T22:03:32.288Z,101459.84
2022-11-12T22:06:19.241Z,101465.88
2022-11-12T22:09:06.079Z,101462.62
2022-11-12T22:11:52.081Z,101463.25
2022-11-12T22:14:38.065Z,101452.94
2022-11-12T22:17:23.663Z,101457.56
2022-11-12T22:20:09.755Z,101460.78
2022-11-12T22:22:55.657Z,101460.50
2022-11-12T22:25:41.495Z,101453.09
2022-11-12T22:28:27.957Z,101450.03
2022-11-12T22:31:16.645Z,101451.75
2022-11-12T22:34:02.819Z,101460.28
2022-11-12T22:36:48.756Z,101452.94
2022-11-12T22:39:34.339Z,101454.72
2022-11-12T22:42:20.063Z,101455.22
2022-11-12T22:45:06.370Z,101458.75
2022-11-12T22:47:52.311Z,101460.53
2022-11-12T22:50:38.011Z,101460.91
2022-11-12T22:53:24.151Z,101462.00
2022-11-12T22:56:15.078Z,101452.47
2022-11-12T22:59:03.486Z,101461.69
2022-11-12T23:01:49.540Z,101458.91
2022-11-12T23:04:35.472Z,101459.72
2022-11-12T23:07:21.181Z,101460.69
2022-11-12T23:10:07.739Z,101456.53
2022-11-12T23:12:53.503Z,101452.03
2022-11-12T23:15:42.727Z,101451.31
2022-11-12T23:18:28.794Z,101454.16
2022-11-12T23:21:17.191Z,101456.31
2022-11-12T23:24:02.756Z,101457.63
2022-11-12T23:26:48.627Z,101462.12
2022-11-12T23:29:34.396Z,101460.59
2022-11-12T23:32:20.032Z,101460.84
2022-11-12T23:35:06.093Z,101463.09
2022-11-12T23:37:54.914Z,101467.41
2022-11-12T23:40:40.888Z,101456.47
2022-11-12T23:43:26.882Z,101462.38
2022-11-12T23:46:12.737Z,101459.03
2022-11-12T23:48:58.662Z,101460.06
2022-11-12T23:51:44.369Z,101470.41
2022-11-12T23:54:30.368Z,101465.69
2022-11-12T23:57:16.099Z,101465.47
